Nearby METAR Reports

 

KCMH - Columbus, Ohio, USA
Distance from station: SW 5mi, 8km
Updated: Fri, 15-Dec-2017 8:51am EST
Haze, Overcast
Haze, Overcast
 Wind from SSW
Wind: SSW 5 mph , 7 km/h
Temperature: 21°F , -6°C
Wind Chill: 14°F , -10°C
Dew Point: 18°F , -8°C
Humidity: 86%
Barometer: 30.00 inHg , 1015.9 hPa
Summary: Haze
Clouds: Overcast
Visibility: 6 miles , 10 km
Cloud details: Overcast 4500 ft
2017/12/15 13:51 KCMH 151351Z 20004KT 6SM HZ OVC045 M06/M08 A3000 RMK AO2 SLP169 T10561083
KOSU - Columbus/St Univ, Ohio, USA
Distance from station: W 14mi, 23km
Updated: Fri, 15-Dec-2017 8:53am EST
Mist, Overcast
Mist, Overcast
 Wind from SW
Wind: SW 6 mph , 9 km/h
Temperature: 21°F , -6°C
Wind Chill: 13°F , -11°C
Dew Point: 18°F , -8°C
Humidity: 86%
Barometer: 29.99 inHg , 1015.6 hPa
Summary: Mist
Clouds: Overcast
Visibility: 5 miles , 8 km
Cloud details: Overcast 4400 ft
2017/12/15 13:53 KOSU 151353Z 22005KT 5SM BR OVC044 M06/M08 A2999 RMK AO2 SLP167 T10611083
 
KLCK - Rickenbacker Ang, Ohio, USA
Distance from station: SSW 17mi, 27km
Updated: Fri, 15-Dec-2017 8:55am EST
Partly cloudy
Partly cloudy
 Wind from calm
Wind: Calm
Temperature: 19°F , -7°C
Dew Point: 19°F , -7°C
Humidity: 100%
Barometer: 30.01 inHg , 1016.3 hPa
Clouds: Partly cloudy
Visibility: 7 miles , 11 km
Cloud details: Partly cloudy 4300 ft
Partly cloudy 12000 ft
2017/12/15 13:55 KLCK 151355Z AUTO 00000KT 7SM SCT043 SCT120 M07/M07 A3001 RMK AO2 T10671075
KVTA - Newark, Ohio, USA
Distance from station: E 19mi, 30km
Updated: Fri, 15-Dec-2017 8:54am EST
Mist, Few clouds
Mist, Few clouds
 Wind from calm
Wind: Calm
Temperature: 19°F , -7°C
Dew Point: 16°F , -9°C
Humidity: 86%
Barometer: 29.99 inHg , 1015.6 hPa
Summary: Mist
Clouds: Few Clouds
Visibility: 6 miles , 10 km
Cloud details: Few Clouds 12000 ft
2017/12/15 13:54 KVTA 151354Z AUTO 00000KT 6SM BR FEW120 M07/M09 A2999 RMK AO2 SLP168 T10721094
 
KTZR - Columbus/Bolton, Ohio, USA
Distance from station: WSW 20mi, 31km
Updated: Fri, 15-Dec-2017 8:50am EST
Overcast
Overcast
 Wind from SSW
Wind: SSW 3 mph , 6 km/h
Temperature: 19°F , -7°C
Dew Point: 18°F , -8°C
Humidity: 93%
Barometer: 29.99 inHg , 1015.6 hPa
Clouds: Overcast
Visibility: 7 miles , 11 km
Cloud details: Partly cloudy 3800 ft
Overcast 4400 ft
2017/12/15 13:50 KTZR 151350Z 21003KT 7SM SCT038 OVC044 M07/M08 A2999
KLHQ - Lancaster, Ohio, USA
Distance from station: SSE 22mi, 36km
Updated: Fri, 15-Dec-2017 8:53am EST
Mist, Clear
Mist, Clear
 Wind from calm
Wind: Calm
Temperature: 21°F , -6°C
Dew Point: 18°F , -8°C
Humidity: 86%
Barometer: 30.00 inHg , 1015.9 hPa
Summary: Mist
Clouds: Clear
Visibility: 4 miles , 6 km
2017/12/15 13:53 KLHQ 151353Z AUTO 00000KT 4SM BR CLR M06/M08 A3000 RMK AO2 SLP172 T10611078
 
KDLZ - Delaware, Ohio, USA
Distance from station: NW 23mi, 36km
Updated: Fri, 15-Dec-2017 8:55am EST
Overcast
Overcast
 Wind from calm
Wind: Calm
Temperature: 21°F , -6°C
Dew Point: 18°F , -8°C
Humidity: 86%
Barometer: 29.98 inHg , 1015.2 hPa
Clouds: Overcast
Visibility: 10 miles , 16 km
Cloud details: Overcast 4300 ft
2017/12/15 13:55 KDLZ 151355Z AUTO 00000KT 10SM OVC043 M06/M08 A2998 RMK AO2
K4I3 - Mt Vernon/Knox, Ohio, USA
Distance from station: NE 25mi, 40km
Updated: Fri, 15-Dec-2017 8:55am EST
Overcast
Overcast
 Wind from calm
Wind: Calm
Temperature: 18°F , -8°C
Dew Point: 16°F , -9°C
Humidity: 93%
Barometer: 29.97 inHg , 1014.9 hPa
Clouds: Overcast
Visibility: 10 miles , 16 km
Cloud details: Overcast 4100 ft
2017/12/15 13:55 K4I3 151355Z AUTO 00000KT 10SM OVC041 M08/M09 A2997 RMK AO2
 
KMRT - Marysville, Ohio, USA
Distance from station: WNW 30mi, 49km
Updated: Fri, 15-Dec-2017 8:55am EST
Overcast
Overcast
 Wind from SW
Wind: SW 6 mph , 9 km/h
Temperature: 21°F , -6°C
Wind Chill: 13°F , -11°C
Dew Point: 18°F , -8°C
Humidity: 86%
Barometer: 29.98 inHg , 1015.2 hPa
Clouds: Overcast
Visibility: 10 miles , 16 km
Cloud details: Overcast 4200 ft
2017/12/15 13:55 KMRT 151355Z AUTO 22005KT 10SM OVC042 M06/M08 A2998 RMK AO2 T10651083
KMNN - Marion, Ohio, USA
Distance from station: NNW 41mi, 67km
Updated: Fri, 15-Dec-2017 7:53am EST
NOT Current
Overcast
Overcast
 Wind from S
Wind: S 8 mph , 13 km/h
Temperature: 16°F , -9°C
Wind Chill: 5°F , -15°C
Dew Point: 10°F , -12°C
Humidity: 79%
Barometer: 29.98 inHg , 1015.2 hPa
Clouds: Overcast
Visibility: 7 miles , 11 km
Cloud details: Overcast 4300 ft
2017/12/15 12:53 KMNN 151253Z AUTO 18007KT 7SM OVC043 M09/M12 A2998 RMK AO2 SLP170 T10891117 $
 
KZZV - Zanesville, Ohio, USA
Distance from station: E 49mi, 79km
Updated: Fri, 15-Dec-2017 8:53am EST
Mist, Clear
Mist, Clear
 Wind from calm
Wind: Calm
Temperature: 19°F , -7°C
Dew Point: 18°F , -8°C
Humidity: 93%
Barometer: 29.99 inHg , 1015.6 hPa
Summary: Mist
Clouds: Clear
Visibility: 4 miles , 6 km
2017/12/15 13:53 KZZV 151353Z AUTO 00000KT 4SM BR CLR M07/M08 A2999 RMK AO2 SLP169 T10671083